sensor_id;sensor_type;location;lat;lon;timestamp;pressure;altitude;pressure_sealevel;temperature;humidity
29941;BME280;16801;53.562;10.038;2023-04-09T00:02:08;102756.66;;;8.27;85.15
29941;BME280;16801;53.562;10.038;2023-04-09T00:05:29;102754.66;;;8.30;84.42
29941;BME280;16801;53.562;10.038;2023-04-09T00:08:49;102754.97;;;8.26;85.28
29941;BME280;16801;53.562;10.038;2023-04-09T00:12:12;102758.44;;;8.26;85.42
29941;BME280;16801;53.562;10.038;2023-04-09T00:15:32;102752.66;;;8.21;85.29
29941;BME280;16801;53.562;10.038;2023-04-09T00:18:53;102756.34;;;8.18;85.59
29941;BME280;16801;53.562;10.038;2023-04-09T00:22:15;102756.34;;;8.18;86.75
29941;BME280;16801;53.562;10.038;2023-04-09T00:25:36;102747.72;;;8.16;86.22
29941;BME280;16801;53.562;10.038;2023-04-09T00:28:58;102747.28;;;8.22;86.97
29941;BME280;16801;53.562;10.038;2023-04-09T00:32:18;102752.13;;;8.29;86.94
29941;BME280;16801;53.562;10.038;2023-04-09T00:35:39;102740.25;;;8.23;86.78
29941;BME280;16801;53.562;10.038;2023-04-09T00:39:00;102749.81;;;8.24;86.76
29941;BME280;16801;53.562;10.038;2023-04-09T00:42:21;102737.28;;;8.28;86.66
29941;BME280;16801;53.562;10.038;2023-04-09T00:45:44;102750.88;;;8.21;86.79
29941;BME280;16801;53.562;10.038;2023-04-09T00:49:06;102740.56;;;8.18;86.69
29941;BME280;16801;53.562;10.038;2023-04-09T00:52:27;102742.88;;;8.23;86.64
29941;BME280;16801;53.562;10.038;2023-04-09T00:55:49;102737.19;;;8.29;86.94
29941;BME280;16801;53.562;10.038;2023-04-09T00:59:10;102743.28;;;8.30;86.05
29941;BME280;16801;53.562;10.038;2023-04-09T01:02:32;102747.19;;;8.24;86.72
29941;BME280;16801;53.562;10.038;2023-04-09T01:05:59;102742.78;;;8.24;86.52
29941;BME280;16801;53.562;10.038;2023-04-09T01:09:27;102741.50;;;8.30;86.05
29941;BME280;16801;53.562;10.038;2023-04-09T01:12:59;102739.53;;;8.34;86.35
29941;BME280;16801;53.562;10.038;2023-04-09T01:16:23;102737.84;;;8.33;85.62
29941;BME280;16801;53.562;10.038;2023-04-09T01:19:51;102738.34;;;8.25;85.01
29941;BME280;16801;53.562;10.038;2023-04-09T01:23:18;102739.28;;;8.24;86.07
29941;BME280;16801;53.562;10.038;2023-04-09T01:26:55;102741.41;;;8.32;86.23
29941;BME280;16801;53.562;10.038;2023-04-09T01:30:27;102742.28;;;8.32;86.14
29941;BME280;16801;53.562;10.038;2023-04-09T01:33:51;102737.00;;;8.32;85.73
29941;BME280;16801;53.562;10.038;2023-04-09T01:37:12;102736.13;;;8.32;85.86
29941;BME280;16801;53.562;10.038;2023-04-09T01:40:34;102732.88;;;8.28;85.53
29941;BME280;16801;53.562;10.038;2023-04-09T01:43:56;102736.47;;;8.27;85.63
29941;BME280;16801;53.562;10.038;2023-04-09T01:47:22;102741.81;;;8.26;86.31
29941;BME280;16801;53.562;10.038;2023-04-09T01:50:43;102734.66;;;8.28;86.31
29941;BME280;16801;53.562;10.038;2023-04-09T01:54:06;102733.28;;;8.22;86.96
29941;BME280;16801;53.562;10.038;2023-04-09T01:57:27;102734.75;;;8.13;86.58
29941;BME280;16801;53.562;10.038;2023-04-09T02:00:49;102726.06;;;8.13;87.16
29941;BME280;16801;53.562;10.038;2023-04-09T02:04:19;102730.47;;;8.12;87.75
29941;BME280;16801;53.562;10.038;2023-04-09T02:07:42;102723.72;;;8.21;87.22
29941;BME280;16801;53.562;10.038;2023-04-09T02:11:08;102725.94;;;8.14;87.58
29941;BME280;16801;53.562;10.038;2023-04-09T02:14:30;102718.91;;;8.02;87.37
29941;BME280;16801;53.562;10.038;2023-04-09T02:17:52;102711.22;;;7.99;88.19
29941;BME280;16801;53.562;10.038;2023-04-09T02:21:15;102718.19;;;8.13;88.61
29941;BME280;16801;53.562;10.038;2023-04-09T02:24:37;102717.63;;;8.20;87.26
29941;BME280;16801;53.562;10.038;2023-04-09T02:27:58;102703.84;;;8.17;86.38
29941;BME280;16801;53.562;10.038;2023-04-09T02:31:19;102717.44;;;8.11;87.06
29941;BME280;16801;53.562;10.038;2023-04-09T02:34:40;102705.34;;;8.08;87.19
29941;BME280;16801;53.562;10.038;2023-04-09T02:38:02;102707.13;;;8.08;86.87
29941;BME280;16801;53.562;10.038;2023-04-09T02:41:23;102707.97;;;8.08;86.97
29941;BME280;16801;53.562;10.038;2023-04-09T02:44:45;102701.75;;;8.09;87.11
29941;BME280;16801;53.562;10.038;2023-04-09T02:48:07;102702.25;;;8.14;87.05
29941;BME280;16801;53.562;10.038;2023-04-09T02:51:28;102693.03;;;8.09;87.32
29941;BME280;16801;53.562;10.038;2023-04-09T02:54:50;102695.56;;;8.10;87.17
29941;BME280;16801;53.562;10.038;2023-04-09T02:58:11;102690.19;;;8.12;87.94
29941;BME280;16801;53.562;10.038;2023-04-09T03:01:32;102696.59;;;8.08;87.83
29941;BME280;16801;53.562;10.038;2023-04-09T03:04:54;102687.13;;;8.05;87.49
29941;BME280;16801;53.562;10.038;2023-04-09T03:08:15;102704.50;;;8.08;87.22
29941;BME280;16801;53.562;10.038;2023-04-09T03:11:37;102695.13;;;8.04;88.28
29941;BME280;16801;53.562;10.038;2023-04-09T03:14:58;102688.19;;;8.03;87.84
29941;BME280;16801;53.562;10.038;2023-04-09T03:18:19;102682.28;;;7.99;88.12
29941;BME280;16801;53.562;10.038;2023-04-09T03:21:40;102682.31;;;8.12;89.03
29941;BME280;16801;53.562;10.038;2023-04-09T03:25:01;102682.41;;;8.10;88.56
29941;BME280;16801;53.562;10.038;2023-04-09T03:28:24;102682.72;;;8.06;88.27
29941;BME280;16801;53.562;10.038;2023-04-09T03:31:46;102674.94;;;8.04;88.56
29941;BME280;16801;53.562;10.038;2023-04-09T03:35:08;102680.81;;;7.95;88.85
29941;BME280;16801;53.562;10.038;2023-04-09T03:38:30;102676.19;;;7.99;89.07
29941;BME280;16801;53.562;10.038;2023-04-09T03:41:54;102672.94;;;7.95;89.29
29941;BME280;16801;53.562;10.038;2023-04-09T03:45:18;102664.72;;;8.00;88.60
29941;BME280;16801;53.562;10.038;2023-04-09T03:48:41;102678.63;;;8.02;88.88
29941;BME280;16801;53.562;10.038;2023-04-09T03:52:05;102683.66;;;8.05;89.10
29941;BME280;16801;53.562;10.038;2023-04-09T03:55:30;102678.63;;;8.02;88.43
29941;BME280;16801;53.562;10.038;2023-04-09T03:58:55;102683.13;;;8.00;89.09
29941;BME280;16801;53.562;10.038;2023-04-09T04:02:28;102680.41;;;8.01;88.86
29941;BME280;16801;53.562;10.038;2023-04-09T04:05:59;102683.66;;;8.05;88.65
29941;BME280;16801;53.562;10.038;2023-04-09T04:09:23;102683.13;;;8.00;88.30
29941;BME280;16801;53.562;10.038;2023-04-09T04:12:48;102680.09;;;8.06;89.15
29941;BME280;16801;53.562;10.038;2023-04-09T04:16:22;102689.34;;;7.99;89.02
29941;BME280;16801;53.562;10.038;2023-04-09T04:19:46;102694.81;;;7.96;89.45
29941;BME280;16801;53.562;10.038;2023-04-09T04:23:07;102685.22;;;7.95;89.57
29941;BME280;16801;53.562;10.038;2023-04-09T04:26:33;102698.59;;;7.92;89.05
29941;BME280;16801;53.562;10.038;2023-04-09T04:29:56;102690.84;;;7.90;89.86
29941;BME280;16801;53.562;10.038;2023-04-09T04:33:34;102692.94;;;7.85;89.89
29941;BME280;16801;53.562;10.038;2023-04-09T04:36:59;102701.22;;;7.92;89.68
29941;BME280;16801;53.562;10.038;2023-04-09T04:40:24;102694.94;;;7.81;90.09
29941;BME280;16801;53.562;10.038;2023-04-09T04:43:51;102691.75;;;7.76;89.63
29941;BME280;16801;53.562;10.038;2023-04-09T04:47:15;102697.56;;;7.81;90.02
29941;BME280;16801;53.562;10.038;2023-04-09T04:50:36;102700.38;;;7.91;89.13
29941;BME280;16801;53.562;10.038;2023-04-09T04:54:02;102702.59;;;7.97;89.93
29941;BME280;16801;53.562;10.038;2023-04-09T04:57:24;102699.44;;;8.05;88.85
29941;BME280;16801;53.562;10.038;2023-04-09T05:00:45;102704.78;;;8.16;88.38
29941;BME280;16801;53.562;10.038;2023-04-09T05:04:07;102699.94;;;8.22;87.77
29941;BME280;16801;53.562;10.038;2023-04-09T05:07:32;102707.63;;;8.26;87.43
29941;BME280;16801;53.562;10.038;2023-04-09T05:10:55;102703.53;;;8.21;87.27
29941;BME280;16801;53.562;10.038;2023-04-09T05:14:22;102703.34;;;8.12;86.73
29941;BME280;16801;53.562;10.038;2023-04-09T05:17:43;102701.97;;;8.06;86.91
29941;BME280;16801;53.562;10.038;2023-04-09T05:21:06;102701.44;;;8.01;87.30
29941;BME280;16801;53.562;10.038;2023-04-09T05:24:27;102703.13;;;8.02;87.82
29941;BME280;16801;53.562;10.038;2023-04-09T05:27:50;102705.66;;;8.04;88.19
29941;BME280;16801;53.562;10.038;2023-04-09T05:31:11;102708.50;;;8.01;88.04
29941;BME280;16801;53.562;10.038;2023-04-09T05:34:40;102700.56;;;8.13;88.55
29941;BME280;16801;53.562;10.038;2023-04-09T05:38:01;102709.19;;;8.28;87.09
29941;BME280;16801;53.562;10.038;2023-04-09T05:41:23;102703.31;;;8.37;86.91
29941;BME280;16801;53.562;10.038;2023-04-09T05:45:02;102707.88;;;8.35;86.41
29941;BME280;16801;53.562;10.038;2023-04-09T05:48:23;102715.97;;;8.32;86.66
29941;BME280;16801;53.562;10.038;2023-04-09T05:51:45;102715.50;;;8.26;86.82
29941;BME280;16801;53.562;10.038;2023-04-09T05:55:13;102714.16;;;8.20;86.84
29941;BME280;16801;53.562;10.038;2023-04-09T05:58:48;102718.25;;;8.24;87.11
29941;BME280;16801;53.562;10.038;2023-04-09T06:02:12;102712.78;;;8.14;86.36
29941;BME280;16801;53.562;10.038;2023-04-09T06:05:32;102716.78;;;8.20;86.97
29941;BME280;16801;53.562;10.038;2023-04-09T06:08:54;102720.34;;;8.19;86.21
29941;BME280;16801;53.562;10.038;2023-04-09T06:12:16;102715.53;;;8.13;87.28
29941;BME280;16801;53.562;10.038;2023-04-09T06:15:37;102720.34;;;8.19;86.48
29941;BME280;16801;53.562;10.038;2023-04-09T06:18:59;102720.25;;;8.20;86.92
29941;BME280;16801;53.562;10.038;2023-04-09T06:22:20;102729.50;;;8.26;86.85
29941;BME280;16801;53.562;10.038;2023-04-09T06:25:40;102727.13;;;8.10;86.47
29941;BME280;16801;53.562;10.038;2023-04-09T06:29:01;102728.47;;;8.03;87.20
29941;BME280;16801;53.562;10.038;2023-04-09T06:32:23;102732.28;;;8.12;87.97
29941;BME280;16801;53.562;10.038;2023-04-09T06:35:45;102737.19;;;8.16;87.44
29941;BME280;16801;53.562;10.038;2023-04-09T06:39:06;102731.81;;;8.31;87.30
29941;BME280;16801;53.562;10.038;2023-04-09T06:42:26;102730.56;;;8.36;86.67
29941;BME280;16801;53.562;10.038;2023-04-09T06:45:59;102738.13;;;8.41;86.20
29941;BME280;16801;53.562;10.038;2023-04-09T06:49:20;102731.94;;;8.42;85.80
29941;BME280;16801;53.562;10.038;2023-04-09T06:52:42;102740.78;;;8.53;85.13
29941;BME280;16801;53.562;10.038;2023-04-09T06:56:03;102733.72;;;8.54;85.12
29941;BME280;16801;53.562;10.038;2023-04-09T06:59:25;102741.50;;;8.55;85.11
29941;BME280;16801;53.562;10.038;2023-04-09T07:02:45;102745.94;;;8.55;84.56
29941;BME280;16801;53.562;10.038;2023-04-09T07:06:06;102744.53;;;8.62;85.06
29941;BME280;16801;53.562;10.038;2023-04-09T07:09:28;102743.88;;;8.58;83.98
29941;BME280;16801;53.562;10.038;2023-04-09T07:12:50;102742.09;;;8.59;85.17
29941;BME280;16801;53.562;10.038;2023-04-09T07:16:10;102745.34;;;8.63;85.06
29941;BME280;16801;53.562;10.038;2023-04-09T07:19:31;102741.69;;;8.89;84.49
29941;BME280;16801;53.562;10.038;2023-04-09T07:22:52;102738.94;;;9.03;83.30
29941;BME280;16801;53.562;10.038;2023-04-09T07:26:14;102747.72;;;9.15;82.67
29941;BME280;16801;53.562;10.038;2023-04-09T07:29:35;102744.31;;;9.25;82.35
29941;BME280;16801;53.562;10.038;2023-04-09T07:32:56;102746.56;;;9.30;82.06
29941;BME280;16801;53.562;10.038;2023-04-09T07:36:17;102745.38;;;9.23;81.86
29941;BME280;16801;53.562;10.038;2023-04-09T07:39:38;102745.38;;;9.23;81.79
29941;BME280;16801;53.562;10.038;2023-04-09T07:43:00;102743.94;;;9.30;81.48
29941;BME280;16801;53.562;10.038;2023-04-09T07:46:21;102745.69;;;9.18;81.08
29941;BME280;16801;53.562;10.038;2023-04-09T07:49:42;102743.69;;;9.22;81.66
29941;BME280;16801;53.562;10.038;2023-04-09T07:53:03;102742.53;;;9.37;81.05
29941;BME280;16801;53.562;10.038;2023-04-09T07:56:23;102743.03;;;9.42;80.14
29941;BME280;16801;53.562;10.038;2023-04-09T07:59:45;102734.44;;;9.51;79.83
29941;BME280;16801;53.562;10.038;2023-04-09T08:03:06;102734.13;;;9.67;80.04
29941;BME280;16801;53.562;10.038;2023-04-09T08:06:28;102737.28;;;9.83;79.11
29941;BME280;16801;53.562;10.038;2023-04-09T08:09:49;102742.22;;;9.88;78.66
29941;BME280;16801;53.562;10.038;2023-04-09T08:13:10;102738.97;;;9.95;78.06
29941;BME280;16801;53.562;10.038;2023-04-09T08:16:32;102743.06;;;9.88;77.89
29941;BME280;16801;53.562;10.038;2023-04-09T08:19:53;102740.31;;;9.90;77.94
29941;BME280;16801;53.562;10.038;2023-04-09T08:23:14;102740.69;;;10.08;77.28
29941;BME280;16801;53.562;10.038;2023-04-09T08:26:35;102736.59;;;10.04;76.96
29941;BME280;16801;53.562;10.038;2023-04-09T08:29:55;102744.84;;;9.99;76.84
29941;BME280;16801;53.562;10.038;2023-04-09T08:33:18;102738.97;;;10.18;76.87
29941;BME280;16801;53.562;10.038;2023-04-09T08:36:38;102734.84;;;10.26;76.06
29941;BME280;16801;53.562;10.038;2023-04-09T08:39:59;102746.91;;;10.18;75.26
29941;BME280;16801;53.562;10.038;2023-04-09T08:43:21;102740.78;;;10.17;76.06
29941;BME280;16801;53.562;10.038;2023-04-09T08:46:44;102736.25;;;10.19;74.58
29941;BME280;16801;53.562;10.038;2023-04-09T08:50:07;102739.47;;;10.12;74.42
29941;BME280;16801;53.562;10.038;2023-04-09T08:53:27;102737.19;;;10.07;74.66
29941;BME280;16801;53.562;10.038;2023-04-09T08:56:49;102739.53;;;9.66;75.17
29941;BME280;16801;53.562;10.038;2023-04-09T09:00:10;102736.13;;;9.52;75.74
29941;BME280;16801;53.562;10.038;2023-04-09T09:03:52;102738.88;;;9.51;76.12
29941;BME280;16801;53.562;10.038;2023-04-09T09:07:15;102745.19;;;9.37;76.88
29941;BME280;16801;53.562;10.038;2023-04-09T09:10:37;102746.41;;;9.44;75.62
29941;BME280;16801;53.562;10.038;2023-04-09T09:14:01;102746.63;;;9.41;76.82
29941;BME280;16801;53.562;10.038;2023-04-09T09:17:23;102746.31;;;9.57;76.16
29941;BME280;16801;53.562;10.038;2023-04-09T09:20:44;102746.84;;;9.73;75.21
29941;BME280;16801;53.562;10.038;2023-04-09T09:24:15;102744.34;;;9.83;75.18
29941;BME280;16801;53.562;10.038;2023-04-09T09:27:37;102752.28;;;9.94;74.68
29941;BME280;16801;53.562;10.038;2023-04-09T09:31:06;102746.66;;;9.87;74.22
29941;BME280;16801;53.562;10.038;2023-04-09T09:34:27;102751.03;;;9.65;74.32
29941;BME280;16801;53.562;10.038;2023-04-09T09:38:00;102748.00;;;9.58;75.22
29941;BME280;16801;53.562;10.038;2023-04-09T09:41:23;102749.13;;;9.78;74.55
29941;BME280;16801;53.562;10.038;2023-04-09T09:44:44;102752.47;;;9.34;75.53
29941;BME280;16801;53.562;10.038;2023-04-09T09:48:05;102746.09;;;9.60;74.77
29941;BME280;16801;53.562;10.038;2023-04-09T09:51:27;102737.84;;;9.76;74.48
29941;BME280;16801;53.562;10.038;2023-04-09T09:54:50;102744.63;;;9.91;73.70
29941;BME280;16801;53.562;10.038;2023-04-09T09:58:16;102742.84;;;10.14;72.14
29941;BME280;16801;53.562;10.038;2023-04-09T10:01:37;102731.94;;;10.41;71.25
29941;BME280;16801;53.562;10.038;2023-04-09T10:05:06;102728.53;;;10.83;70.07
29941;BME280;16801;53.562;10.038;2023-04-09T10:08:28;102733.34;;;11.21;68.90
29941;BME280;16801;53.562;10.038;2023-04-09T10:11:52;102732.72;;;11.29;66.77
29941;BME280;16801;53.562;10.038;2023-04-09T10:15:16;102726.00;;;11.46;66.56
29941;BME280;16801;53.562;10.038;2023-04-09T10:18:37;102725.75;;;12.21;64.76
29941;BME280;16801;53.562;10.038;2023-04-09T10:22:04;102723.84;;;11.92;63.44
29941;BME280;16801;53.562;10.038;2023-04-09T10:25:28;102720.78;;;11.76;65.26
29941;BME280;16801;53.562;10.038;2023-04-09T10:29:02;102721.63;;;11.77;64.21
29941;BME280;16801;53.562;10.038;2023-04-09T10:32:33;102718.06;;;12.08;64.46
29941;BME280;16801;53.562;10.038;2023-04-09T10:35:59;102717.53;;;12.14;63.57
29941;BME280;16801;53.562;10.038;2023-04-09T10:39:25;102713.72;;;12.07;63.50
29941;BME280;16801;53.562;10.038;2023-04-09T10:42:47;102711.88;;;11.56;64.76
29941;BME280;16801;53.562;10.038;2023-04-09T10:46:26;102721.34;;;11.38;65.75
29941;BME280;16801;53.562;10.038;2023-04-09T10:49:48;102706.38;;;10.95;65.99
29941;BME280;16801;53.562;10.038;2023-04-09T10:53:20;102716.97;;;10.95;66.50
29941;BME280;16801;53.562;10.038;2023-04-09T10:57:09;102712.81;;;11.14;66.74
29941;BME280;16801;53.562;10.038;2023-04-09T11:00:30;102706.63;;;11.04;65.50
29941;BME280;16801;53.562;10.038;2023-04-09T11:04:07;102708.31;;;11.25;65.29
29941;BME280;16801;53.562;10.038;2023-04-09T11:07:29;102705.25;;;11.83;64.00
29941;BME280;16801;53.562;10.038;2023-04-09T11:10:52;102701.38;;;12.57;61.49
29941;BME280;16801;53.562;10.038;2023-04-09T11:14:18;102688.91;;;13.27;58.66
29941;BME280;16801;53.562;10.038;2023-04-09T11:17:39;102682.34;;;14.52;55.04
29941;BME280;16801;53.562;10.038;2023-04-09T11:21:01;102683.63;;;15.36;52.53
29941;BME280;16801;53.562;10.038;2023-04-09T11:24:23;102682.78;;;16.14;48.82
29941;BME280;16801;53.562;10.038;2023-04-09T11:27:44;102682.59;;;15.73;48.26
29941;BME280;16801;53.562;10.038;2023-04-09T11:31:06;102676.34;;;17.80;45.08
29941;BME280;16801;53.562;10.038;2023-04-09T11:34:27;102667.19;;;19.73;38.98
29941;BME280;16801;53.562;10.038;2023-04-09T11:37:48;102662.53;;;21.54;35.76
29941;BME280;16801;53.562;10.038;2023-04-09T11:41:12;102662.94;;;20.08;37.85
29941;BME280;16801;53.562;10.038;2023-04-09T11:44:33;102667.31;;;19.05;39.79
29941;BME280;16801;53.562;10.038;2023-04-09T11:47:54;102670.50;;;17.68;42.34
29941;BME280;16801;53.562;10.038;2023-04-09T11:51:15;102670.06;;;17.16;44.79
29941;BME280;16801;53.562;10.038;2023-04-09T11:54:36;102663.50;;;21.19;36.66
29941;BME280;16801;53.562;10.038;2023-04-09T11:57:59;102651.75;;;20.56;34.98
29941;BME280;16801;53.562;10.038;2023-04-09T12:01:21;102655.88;;;20.37;37.02
29941;BME280;16801;53.562;10.038;2023-04-09T12:04:48;102652.75;;;23.49;30.57
29941;BME280;16801;53.562;10.038;2023-04-09T12:08:08;102649.03;;;22.97;30.35
29941;BME280;16801;53.562;10.038;2023-04-09T12:11:30;102648.47;;;20.39;34.10
29941;BME280;16801;53.562;10.038;2023-04-09T12:14:53;102646.56;;;18.84;37.86
29941;BME280;16801;53.562;10.038;2023-04-09T12:18:20;102645.19;;;17.24;41.92
29941;BME280;16801;53.562;10.038;2023-04-09T12:21:46;102640.81;;;19.47;37.69
29941;BME280;16801;53.562;10.038;2023-04-09T12:25:07;102637.94;;;19.49;38.35
29941;BME280;16801;53.562;10.038;2023-04-09T12:28:29;102634.81;;;23.81;29.70
29941;BME280;16801;53.562;10.038;2023-04-09T12:31:51;102622.88;;;26.90;25.01
29941;BME280;16801;53.562;10.038;2023-04-09T12:35:13;102612.06;;;26.37;23.35
29941;BME280;16801;53.562;10.038;2023-04-09T12:38:34;102619.41;;;25.45;25.55
29941;BME280;16801;53.562;10.038;2023-04-09T12:41:55;102609.50;;;26.54;24.11
29941;BME280;16801;53.562;10.038;2023-04-09T12:45:17;102608.81;;;28.15;21.12
29941;BME280;16801;53.562;10.038;2023-04-09T12:48:40;102608.22;;;26.68;22.58
29941;BME280;16801;53.562;10.038;2023-04-09T12:52:01;102604.75;;;26.38;22.40
29941;BME280;16801;53.562;10.038;2023-04-09T12:55:21;102601.59;;;23.94;26.46
29941;BME280;16801;53.562;10.038;2023-04-09T12:58:42;102612.69;;;19.81;33.39
29941;BME280;16801;53.562;10.038;2023-04-09T13:02:03;102609.97;;;20.68;32.92
29941;BME280;16801;53.562;10.038;2023-04-09T13:05:25;102604.59;;;24.55;27.25
29941;BME280;16801;53.562;10.038;2023-04-09T13:08:47;102589.25;;;26.68;23.09
29941;BME280;16801;53.562;10.038;2023-04-09T13:12:08;102589.63;;;27.53;21.51
29941;BME280;16801;53.562;10.038;2023-04-09T13:15:29;102587.72;;;27.77;21.52
29941;BME280;16801;53.562;10.038;2023-04-09T13:18:50;102580.56;;;26.78;21.83
29941;BME280;16801;53.562;10.038;2023-04-09T13:22:12;102577.44;;;25.00;24.74
29941;BME280;16801;53.562;10.038;2023-04-09T13:25:33;102575.59;;;24.94;24.81
29941;BME280;16801;53.562;10.038;2023-04-09T13:28:54;102571.34;;;27.61;22.54
29941;BME280;16801;53.562;10.038;2023-04-09T13:32:15;102570.53;;;25.65;23.83
29941;BME280;16801;53.562;10.038;2023-04-09T13:35:37;102557.66;;;25.79;23.37
29941;BME280;16801;53.562;10.038;2023-04-09T13:38:59;102565.00;;;26.73;22.73
29941;BME280;16801;53.562;10.038;2023-04-09T13:42:23;102559.69;;;23.91;25.25
29941;BME280;16801;53.562;10.038;2023-04-09T13:45:44;102567.75;;;20.55;31.78
29941;BME280;16801;53.562;10.038;2023-04-09T13:49:05;102560.31;;;22.30;29.53
29941;BME280;16801;53.562;10.038;2023-04-09T13:52:26;102558.31;;;22.78;29.34
29941;BME280;16801;53.562;10.038;2023-04-09T13:55:48;102545.56;;;25.45;25.43
29941;BME280;16801;53.562;10.038;2023-04-09T13:59:10;102543.34;;;26.20;23.29
29941;BME280;16801;53.562;10.038;2023-04-09T14:02:31;102546.81;;;25.61;24.34
29941;BME280;16801;53.562;10.038;2023-04-09T14:05:51;102545.38;;;24.22;25.10
29941;BME280;16801;53.562;10.038;2023-04-09T14:09:13;102536.25;;;23.92;26.14
29941;BME280;16801;53.562;10.038;2023-04-09T14:12:36;102526.78;;;24.88;25.68
29941;BME280;16801;53.562;10.038;2023-04-09T14:15:57;102535.31;;;24.67;26.40
29941;BME280;16801;53.562;10.038;2023-04-09T14:19:18;102530.22;;;23.90;27.35
29941;BME280;16801;53.562;10.038;2023-04-09T14:22:39;102538.56;;;22.38;28.74
29941;BME280;16801;53.562;10.038;2023-04-09T14:26:02;102536.63;;;20.89;29.97
29941;BME280;16801;53.562;10.038;2023-04-09T14:29:24;102538.09;;;21.19;31.29
29941;BME280;16801;53.562;10.038;2023-04-09T14:32:44;102547.84;;;21.20;31.71
29941;BME280;16801;53.562;10.038;2023-04-09T14:36:06;102545.97;;;20.93;32.84
29941;BME280;16801;53.562;10.038;2023-04-09T14:39:26;102533.47;;;20.78;30.46
29941;BME280;16801;53.562;10.038;2023-04-09T14:42:47;102539.56;;;20.44;33.10
29941;BME280;16801;53.562;10.038;2023-04-09T14:46:10;102540.03;;;20.48;34.26
29941;BME280;16801;53.562;10.038;2023-04-09T14:49:31;102533.22;;;20.31;30.85
29941;BME280;16801;53.562;10.038;2023-04-09T14:52:51;102536.91;;;19.87;34.08
29941;BME280;16801;53.562;10.038;2023-04-09T14:56:12;102526.13;;;20.02;35.65
29941;BME280;16801;53.562;10.038;2023-04-09T14:59:33;102528.13;;;19.49;34.00
29941;BME280;16801;53.562;10.038;2023-04-09T15:02:55;102518.53;;;19.40;35.63
29941;BME280;16801;53.562;10.038;2023-04-09T15:06:16;102518.88;;;19.66;35.00
29941;BME280;16801;53.562;10.038;2023-04-09T15:09:37;102508.97;;;18.64;35.86
29941;BME280;16801;53.562;10.038;2023-04-09T15:12:57;102506.34;;;19.08;36.59
29941;BME280;16801;53.562;10.038;2023-04-09T15:16:23;102501.66;;;19.10;36.12
29941;BME280;16801;53.562;10.038;2023-04-09T15:19:45;102485.41;;;19.41;36.07
29941;BME280;16801;53.562;10.038;2023-04-09T15:23:06;102483.34;;;19.58;35.67
29941;BME280;16801;53.562;10.038;2023-04-09T15:26:27;102496.00;;;19.34;36.24
29941;BME280;16801;53.562;10.038;2023-04-09T15:29:48;102504.50;;;19.38;36.34
29941;BME280;16801;53.562;10.038;2023-04-09T15:33:08;102503.09;;;18.98;36.13
29941;BME280;16801;53.562;10.038;2023-04-09T15:36:30;102490.91;;;18.66;36.93
29941;BME280;16801;53.562;10.038;2023-04-09T15:39:51;102492.84;;;18.72;37.32
29941;BME280;16801;53.562;10.038;2023-04-09T15:43:12;102500.22;;;18.85;36.77
29941;BME280;16801;53.562;10.038;2023-04-09T15:46:36;102499.22;;;18.86;36.35
29941;BME280;16801;53.562;10.038;2023-04-09T15:49:57;102506.78;;;18.22;37.47
29941;BME280;16801;53.562;10.038;2023-04-09T15:53:19;102500.09;;;18.18;38.29
29941;BME280;16801;53.562;10.038;2023-04-09T15:56:44;102484.59;;;18.36;38.50
29941;BME280;16801;53.562;10.038;2023-04-09T16:00:06;102488.88;;;18.45;38.01
29941;BME280;16801;53.562;10.038;2023-04-09T16:03:28;102485.88;;;18.25;38.00
29941;BME280;16801;53.562;10.038;2023-04-09T16:06:54;102492.69;;;18.05;38.83
29941;BME280;16801;53.562;10.038;2023-04-09T16:10:16;102490.72;;;17.99;38.55
29941;BME280;16801;53.562;10.038;2023-04-09T16:13:37;102483.47;;;18.07;38.70
29941;BME280;16801;53.562;10.038;2023-04-09T16:16:57;102480.22;;;17.97;38.62
29941;BME280;16801;53.562;10.038;2023-04-09T16:20:19;102477.59;;;17.89;38.88
29941;BME280;16801;53.562;10.038;2023-04-09T16:23:40;102477.41;;;17.91;39.00
29941;BME280;16801;53.562;10.038;2023-04-09T16:27:02;102470.66;;;17.80;39.58
29941;BME280;16801;53.562;10.038;2023-04-09T16:30:22;102472.81;;;17.76;39.83
29941;BME280;16801;53.562;10.038;2023-04-09T16:33:43;102469.09;;;17.86;40.51
29941;BME280;16801;53.562;10.038;2023-04-09T16:37:04;102470.69;;;17.64;41.79
29941;BME280;16801;53.562;10.038;2023-04-09T16:40:26;102467.31;;;17.39;43.14
29941;BME280;16801;53.562;10.038;2023-04-09T16:43:48;102470.03;;;17.31;43.65
29941;BME280;16801;53.562;10.038;2023-04-09T16:47:09;102471.69;;;17.24;44.46
29941;BME280;16801;53.562;10.038;2023-04-09T16:50:30;102467.31;;;16.75;45.35
29941;BME280;16801;53.562;10.038;2023-04-09T16:53:52;102468.50;;;16.57;46.67
29941;BME280;16801;53.562;10.038;2023-04-09T16:57:12;102463.50;;;16.62;46.73
29941;BME280;16801;53.562;10.038;2023-04-09T17:00:35;102467.16;;;16.36;47.74
29941;BME280;16801;53.562;10.038;2023-04-09T17:03:57;102471.19;;;16.24;48.43
29941;BME280;16801;53.562;10.038;2023-04-09T17:07:18;102476.31;;;16.18;48.36
29941;BME280;16801;53.562;10.038;2023-04-09T17:10:40;102474.66;;;16.17;48.62
29941;BME280;16801;53.562;10.038;2023-04-09T17:14:01;102482.97;;;16.05;48.44
29941;BME280;16801;53.562;10.038;2023-04-09T17:17:23;102476.59;;;15.74;49.33
29941;BME280;16801;53.562;10.038;2023-04-09T17:20:44;102477.41;;;15.75;49.82
29941;BME280;16801;53.562;10.038;2023-04-09T17:24:05;102480.53;;;15.62;50.27
29941;BME280;16801;53.562;10.038;2023-04-09T17:27:26;102476.94;;;15.45;50.82
29941;BME280;16801;53.562;10.038;2023-04-09T17:30:47;102476.84;;;15.21;51.37
29941;BME280;16801;53.562;10.038;2023-04-09T17:34:09;102473.22;;;14.96;52.33